Time;durP1;ratioP1;P1;durP2;ratioP2;P2;SDS_P1;SDS_P2;PMS_P1;PMS_P2;Temp;Humidity;BMP_temperature;BMP_pressure;BME280_temperature;BME280_humidity;BME280_pressure;Samples;Min_cycle;Max_cycle;Signal;HPM_P1;HPM_P2
2022/02/08 00:00:40;;;;;;;6.35;2.47;;;;;;;-1.66;74.32;93996.72;2051486;70;20252;-72
2022/02/08 00:03:09;;;;;;;7.88;2.65;;;;;;;-1.76;74.13;93992.69;2051231;70;20154;-70
2022/02/08 00:05:36;;;;;;;3.00;1.70;;;;;;;-1.64;74.26;93997.00;2051271;70;20213;-73
2022/02/08 00:08:03;;;;;;;6.35;2.30;;;;;;;-1.72;73.53;93995.97;2051279;70;20188;-72
2022/02/08 00:10:29;;;;;;;7.88;1.90;;;;;;;-1.54;74.79;93990.72;2048135;70;20205;-72
2022/02/08 00:12:57;;;;;;;3.63;1.40;;;;;;;-1.60;74.08;93978.16;2051304;70;20178;-71
2022/02/08 00:15:25;;;;;;;2.22;1.10;;;;;;;-1.78;72.94;93984.91;2051389;70;20134;-74
2022/02/08 00:17:50;;;;;;;1.67;1.15;;;;;;;-1.75;74.19;93989.41;2051439;70;20150;-69
2022/02/08 00:20:16;;;;;;;2.58;1.10;;;;;;;-1.78;73.58;93982.16;2051507;70;20157;-69
2022/02/08 00:22:42;;;;;;;2.53;1.17;;;;;;;-1.81;74.02;93975.59;2051459;70;20570;-69
2022/02/08 00:25:07;;;;;;;2.20;1.10;;;;;;;-1.67;74.30;93984.16;2047986;70;20145;-70
2022/02/08 00:27:33;;;;;;;1.80;1.05;;;;;;;-1.58;74.00;93989.44;2051078;70;20165;-73
2022/02/08 00:29:59;;;;;;;4.30;1.30;;;;;;;-1.87;73.67;93994.19;2051261;70;20142;-71
2022/02/08 00:32:25;;;;;;;2.72;1.25;;;;;;;-1.84;74.00;93995.94;2048149;70;20147;-75
2022/02/08 00:34:51;;;;;;;3.50;1.35;;;;;;;-1.72;72.77;93990.44;2051236;70;20162;-69
2022/02/08 00:37:16;;;;;;;2.50;1.33;;;;;;;-1.86;74.39;93989.41;2051402;70;20241;-69
2022/02/08 00:39:43;;;;;;;3.35;1.80;;;;;;;-2.31;74.71;93984.50;2047864;70;20158;-70
2022/02/08 00:42:11;;;;;;;4.35;1.80;;;;;;;-2.11;74.93;93985.56;2051303;70;20253;-69
2022/02/08 00:44:52;;;;;;;3.10;1.98;;;;;;;-1.79;73.92;93980.63;2045722;70;20193;-70
2022/02/08 00:49:44;;;;;;;5.00;1.83;;;;;;;-1.96;72.72;93999.94;2053892;70;20186;-70
2022/02/08 00:52:15;;;;;;;3.05;1.17;;;;;;;-1.84;73.03;94003.47;2048400;70;20143;-69
2022/02/08 00:54:43;;;;;;;5.10;1.30;;;;;;;-1.83;72.38;94000.22;2053887;70;20147;-69
2022/02/08 00:57:09;;;;;;;6.78;1.88;;;;;;;-1.85;73.06;94002.72;2051371;70;20208;-70
2022/02/08 00:59:35;;;;;;;2.97;1.65;;;;;;;-1.85;72.55;94007.47;2048411;70;20166;-71
2022/02/08 01:02:05;;;;;;;5.22;1.52;;;;;;;-1.92;73.39;94005.97;2048286;70;20181;-70
2022/02/08 01:04:30;;;;;;;6.30;1.58;;;;;;;-1.92;73.38;94002.47;2053889;70;20212;-72
2022/02/08 01:07:00;;;;;;;5.03;1.60;;;;;;;-1.73;73.25;94016.53;2048647;70;20131;-70
2022/02/08 01:09:51;;;;;;;2.75;1.58;;;;;;;-2.11;72.31;94019.47;2048453;70;20177;-74
2022/02/08 01:12:17;;;;;;;4.55;2.00;;;;;;;-2.26;73.65;94027.16;2051735;70;20622;-71
2022/02/08 01:14:46;;;;;;;6.00;2.92;;;;;;;-2.12;73.07;94037.25;2045841;70;20590;-72
2022/02/08 01:17:13;;;;;;;4.30;1.60;;;;;;;-2.09;73.32;94041.78;2051028;70;20143;-72
2022/02/08 01:19:46;;;;;;;2.75;1.67;;;;;;;-2.23;72.71;94036.47;2051767;70;20141;-73
2022/02/08 01:22:12;;;;;;;4.35;1.63;;;;;;;-2.01;73.54;94035.81;2051728;70;20146;-74
2022/02/08 01:24:38;;;;;;;1.60;1.00;;;;;;;-1.89;73.30;94046.34;2051569;70;20154;-70
2022/02/08 01:27:09;;;;;;;3.22;1.02;;;;;;;-1.87;73.45;94040.34;2051635;70;20161;-70
2022/02/08 01:29:41;;;;;;;2.75;1.23;;;;;;;-1.84;73.50;94040.09;2051942;70;20221;-71
2022/02/08 01:32:34;;;;;;;3.72;1.10;;;;;;;-2.04;73.36;94045.81;2051467;70;20169;-70
2022/02/08 01:35:21;;;;;;;3.92;0.90;;;;;;;-1.84;73.64;94048.38;2051629;70;20166;-71
2022/02/08 01:38:07;;;;;;;4.53;1.10;;;;;;;-1.71;72.59;94052.69;2051511;70;20150;-70
2022/02/08 01:41:01;;;;;;;1.48;1.02;;;;;;;-1.59;72.98;94063.25;2051642;70;20240;-71
2022/02/08 01:46:27;;;;;;;9.50;1.17;;;;;;;-1.60;71.86;94055.50;2051633;70;20152;-71
2022/02/08 01:51:07;;;;;;;1.95;0.93;;;;;;;-1.52;71.96;94069.56;2051783;70;20268;-71
2022/02/08 01:53:33;;;;;;;2.25;0.90;;;;;;;-1.69;71.25;94064.75;2051492;70;20130;-71
2022/02/08 01:55:59;;;;;;;1.60;0.93;;;;;;;-1.37;72.04;94068.09;2051906;70;20134;-70
2022/02/08 01:58:25;;;;;;;2.88;0.85;;;;;;;-1.51;71.51;94071.06;2048459;70;20564;-72
2022/02/08 02:00:58;;;;;;;5.38;1.20;;;;;;;-1.71;71.13;94074.78;2047789;70;20220;-71
2022/02/08 02:03:23;;;;;;;1.35;0.80;;;;;;;-1.63;70.54;94073.03;2048221;70;20471;-70
2022/02/08 02:05:52;;;;;;;3.22;1.00;;;;;;;-1.48;71.08;94075.59;2048016;70;20566;-69
2022/02/08 02:08:19;;;;;;;2.83;0.88;;;;;;;-1.52;71.39;94072.31;2047888;70;20155;-70
2022/02/08 02:10:47;;;;;;;1.20;0.82;;;;;;;-1.40;71.74;94074.59;2048338;70;20237;-69
2022/02/08 02:13:34;;;;;;;3.08;0.90;;;;;;;-1.37;70.59;94075.63;2047785;70;20147;-69
2022/02/08 02:16:04;;;;;;;1.58;0.77;;;;;;;-1.21;70.74;94085.94;2050588;69;20271;-70
2022/02/08 02:18:30;;;;;;;2.85;0.88;;;;;;;-1.07;70.53;94084.19;2047849;70;20179;-71
2022/02/08 02:20:56;;;;;;;1.25;0.98;;;;;;;-1.14;70.55;94082.69;2050590;70;20147;-69
2022/02/08 02:23:22;;;;;;;3.08;1.17;;;;;;;-1.07;70.47;94086.94;2050609;70;20537;-71
2022/02/08 02:25:48;;;;;;;1.65;0.90;;;;;;;-1.06;70.09;94078.16;2050765;70;20150;-72
2022/02/08 02:28:14;;;;;;;3.45;0.80;;;;;;;-1.05;70.22;94085.19;2048317;70;20138;-72
2022/02/08 02:30:41;;;;;;;1.42;0.88;;;;;;;-0.90;70.94;94082.19;2047820;70;20186;-72
2022/02/08 02:33:08;;;;;;;1.33;0.70;;;;;;;-0.80;72.15;94077.16;2050748;70;20223;-70
2022/02/08 02:35:36;;;;;;;0.93;0.70;;;;;;;-0.93;72.28;94082.44;2048078;70;20526;-71
2022/02/08 02:38:06;;;;;;;0.90;0.85;;;;;;;-0.88;72.45;94087.19;2050562;70;20161;-73
2022/02/08 02:40:36;;;;;;;3.53;1.20;;;;;;;-0.94;71.30;94094.75;2047766;70;20208;-72
2022/02/08 02:43:03;;;;;;;3.00;1.30;;;;;;;-0.87;70.86;94091.47;2047849;70;20178;-70
2022/02/08 02:45:32;;;;;;;3.30;1.30;;;;;;;-0.85;70.87;94091.72;2047734;70;20239;-70
2022/02/08 02:47:58;;;;;;;3.75;1.40;;;;;;;-0.81;70.79;94100.53;2048099;70;20169;-70
2022/02/08 02:50:30;;;;;;;2.37;1.23;;;;;;;-0.82;70.83;94094.25;2050326;70;20190;-74
2022/02/08 02:52:56;;;;;;;2.38;1.30;;;;;;;-1.08;71.00;94093.75;2047568;70;20252;-71
2022/02/08 02:55:23;;;;;;;3.50;1.50;;;;;;;-0.82;70.78;94094.25;2047725;70;20215;-76
2022/02/08 02:57:52;;;;;;;5.75;1.52;;;;;;;-0.73;71.39;94092.47;2050437;70;20139;-70
2022/02/08 03:00:41;;;;;;;3.08;1.27;;;;;;;-0.61;71.79;94093.97;2050629;70;20142;-69
2022/02/08 03:19:11;;;;;;;3.42;1.08;;;;;;;-0.63;71.74;94079.91;2053969;69;20157;-72
2022/02/08 03:21:36;;;;;;;3.00;0.90;;;;;;;-0.48;71.64;94077.63;2051902;70;20138;-71
2022/02/08 03:24:02;;;;;;;0.85;0.75;;;;;;;-0.52;72.19;94077.13;2051686;70;20164;-70
2022/02/08 03:26:31;;;;;;;1.38;0.75;;;;;;;-0.47;71.39;94081.13;2053936;70;20150;-70
2022/02/08 03:29:02;;;;;;;1.13;0.80;;;;;;;-0.30;72.24;94085.38;2048515;70;20141;-71
2022/02/08 03:31:31;;;;;;;2.67;0.80;;;;;;;-0.28;70.99;94088.38;2048440;70;20151;-72
2022/02/08 03:33:58;;;;;;;2.38;1.05;;;;;;;-0.55;70.55;94086.41;2048461;70;20560;-75
2022/02/08 03:36:25;;;;;;;3.83;1.00;;;;;;;-0.43;71.42;94096.22;2053946;70;20203;-71
2022/02/08 03:41:40;;;;;;;3.15;1.10;;;;;;;-0.60;72.59;94101.00;2053938;70;20146;-70
2022/02/08 03:44:16;;;;;;;2.50;1.05;;;;;;;-0.62;72.95;94107.06;2051081;70;20642;-71
2022/02/08 03:46:43;;;;;;;2.53;1.00;;;;;;;-0.38;72.50;94109.28;2048288;70;20138;-70
2022/02/08 03:49:10;;;;;;;1.77;1.20;;;;;;;-0.41;71.78;94099.25;2048413;70;20150;-70
2022/02/08 03:51:48;;;;;;;3.67;1.35;;;;;;;-0.54;71.15;94110.84;2051786;70;20173;-70
2022/02/08 03:54:15;;;;;;;2.95;1.30;;;;;;;-0.51;71.74;94111.81;2051134;70;20154;-70
2022/02/08 03:56:41;;;;;;;2.20;1.13;;;;;;;-0.44;71.34;94107.81;2053875;70;20146;-70
2022/02/08 03:59:07;;;;;;;2.00;1.60;;;;;;;-0.30;71.45;94110.28;2053816;70;20150;-74
2022/02/08 04:07:12;;;;;;;1.48;1.20;;;;;;;-0.60;71.67;94121.13;2051702;70;20174;-72
2022/02/08 04:09:38;;;;;;;3.38;1.40;;;;;;;-0.68;70.52;94122.91;2051655;70;20595;-73
2022/02/08 04:12:11;;;;;;;3.47;1.70;;;;;;;-0.48;71.12;94121.88;2051623;70;20629;-75
2022/02/08 04:14:46;;;;;;;4.90;1.30;;;;;;;-0.47;70.34;94120.63;2051689;70;20601;-71
2022/02/08 04:17:29;;;;;;;1.92;1.38;;;;;;;-0.55;69.96;94122.38;2051750;70;20520;-75
2022/02/08 04:41:36;;;;;;;4.95;2.92;;;;;;;-0.39;68.51;94129.94;2052216;70;20511;-71
2022/02/08 04:47:42;;;;;;;4.30;1.50;;;;;;;-0.28;69.64;94134.69;2052026;70;20150;-73
2022/02/08 04:49:31;;;;;;;3.30;1.40;;;;;;;-0.24;70.11;94132.41;2050414;70;20162;-70
2022/02/08 04:52:02;;;;;;;3.85;1.50;;;;;;;-0.33;69.62;94127.16;2052114;70;20233;-73
2022/02/08 04:57:34;;;;;;;2.70;1.40;;;;;;;-0.39;69.58;94141.00;2050478;70;20302;-69
2022/02/08 05:28:29;;;;;;;2.13;1.15;;;;;;;-0.15;69.87;94175.69;2048961;70;20154;-70
2022/02/08 05:43:26;;;;;;;4.00;1.85;;;;;;;0.00;72.31;94170.66;2048763;70;20161;-72
2022/02/08 05:48:26;;;;;;;1.48;1.10;;;;;;;-0.23;72.00;94174.69;2048614;70;20189;-71
2022/02/08 05:51:02;;;;;;;1.67;1.30;;;;;;;-0.21;70.20;94177.72;2048709;70;20147;-71
2022/02/08 05:53:31;;;;;;;2.60;1.67;;;;;;;-0.13;69.49;94184.25;2049033;70;20163;-71
2022/02/08 05:55:57;;;;;;;2.35;1.50;;;;;;;-0.21;68.25;94197.09;2048770;70;20203;-72
2022/02/08 05:58:23;;;;;;;2.42;1.48;;;;;;;-0.15;68.99;94201.34;2048681;70;20201;-71
2022/02/08 06:00:49;;;;;;;2.05;1.40;;;;;;;-0.08;68.26;94191.78;2048551;70;20271;-70
2022/02/08 06:03:38;;;;;;;2.78;1.80;;;;;;;-0.23;67.95;94211.41;2047040;70;20157;-72
2022/02/08 06:06:05;;;;;;;2.28;1.75;;;;;;;-0.19;67.69;94194.56;2045370;70;20172;-71
2022/02/08 06:08:31;;;;;;;3.70;1.50;;;;;;;0.03;69.50;94191.78;2045484;70;20131;-70
2022/02/08 06:11:13;;;;;;;2.92;1.45;;;;;;;0.06;70.22;94188.00;2048730;70;20135;-73
2022/02/08 06:13:39;;;;;;;2.95;1.70;;;;;;;-0.02;70.43;94193.28;2048657;70;20142;-74
2022/02/08 06:16:10;;;;;;;4.05;1.52;;;;;;;-0.01;70.45;94191.28;2048087;70;20150;-74
2022/02/08 06:18:36;;;;;;;2.45;1.13;;;;;;;0.01;71.14;94183.22;2048542;70;20546;-74
2022/02/08 06:21:02;;;;;;;2.03;1.17;;;;;;;0.15;70.78;94186.97;2048732;70;20139;-74
2022/02/08 06:23:28;;;;;;;2.10;1.10;;;;;;;0.11;70.75;94181.69;2048704;70;20575;-77
2022/02/08 06:25:55;;;;;;;2.33;1.60;;;;;;;0.17;69.45;94198.28;2050810;70;20153;-76
2022/02/08 06:28:22;;;;;;;1.33;1.10;;;;;;;0.17;69.97;94190.72;2048737;70;20166;-76
2022/02/08 06:30:48;;;;;;;2.17;1.13;;;;;;;0.23;70.92;94190.75;2048720;70;20157;-73
2022/02/08 06:33:14;;;;;;;1.52;1.08;;;;;;;0.20;71.60;94195.25;2048520;70;20142;-72
2022/02/08 06:35:42;;;;;;;2.85;1.20;;;;;;;0.08;71.28;94191.00;2048026;70;20217;-73
2022/02/08 06:38:11;;;;;;;1.15;0.90;;;;;;;0.27;70.70;94205.06;2048600;70;20168;-70
2022/02/08 06:40:38;;;;;;;2.35;1.38;;;;;;;0.39;70.38;94206.53;2048590;70;20150;-73
2022/02/08 06:43:04;;;;;;;4.10;2.03;;;;;;;0.40;69.82;94212.84;2048567;70;20162;-70
2022/02/08 06:45:31;;;;;;;1.40;1.00;;;;;;;0.33;70.15;94208.59;2048533;70;20138;-71
2022/02/08 06:47:57;;;;;;;2.45;1.17;;;;;;;0.41;70.60;94204.03;2048447;70;20595;-70
2022/02/08 06:50:23;;;;;;;2.80;1.10;;;;;;;0.36;71.39;94215.13;2045281;70;20163;-70
2022/02/08 06:52:49;;;;;;;1.75;1.10;;;;;;;0.49;70.44;94216.06;2048659;70;20594;-70
2022/02/08 06:55:15;;;;;;;2.30;1.20;;;;;;;0.49;70.21;94216.06;2048574;70;20178;-70
2022/02/08 06:57:52;;;;;;;2.00;1.30;;;;;;;0.27;69.55;94220.94;2048559;70;20147;-70
2022/02/08 07:00:28;;;;;;;1.35;1.20;;;;;;;0.40;69.74;94218.38;2048518;70;20147;-73
2022/02/08 07:02:54;;;;;;;2.60;1.20;;;;;;;0.47;69.74;94223.41;2047934;70;20159;-72
2022/02/08 07:05:20;;;;;;;4.45;1.23;;;;;;;0.41;69.70;94222.66;2048598;70;20701;-74
2022/02/08 07:07:45;;;;;;;1.48;1.25;;;;;;;0.43;69.11;94211.84;2050745;70;20617;-73
2022/02/08 07:10:11;;;;;;;2.53;1.70;;;;;;;0.22;68.42;94214.13;2048529;70;20131;-75
2022/02/08 07:12:37;;;;;;;4.07;2.33;;;;;;;0.39;68.91;94225.94;2048540;70;20586;-73
2022/02/08 07:15:09;;;;;;;3.53;1.60;;;;;;;0.36;68.90;94217.88;2048634;70;20153;-73
2022/02/08 07:17:34;;;;;;;2.47;1.60;;;;;;;0.46;68.37;94225.44;2045094;70;20571;-71
2022/02/08 07:20:00;;;;;;;6.30;2.00;;;;;;;0.43;66.74;94229.22;2048465;70;20139;-74
2022/02/08 07:22:26;;;;;;;3.00;1.65;;;;;;;0.65;67.57;94225.63;2048584;70;20150;-73
2022/02/08 07:24:52;;;;;;;2.75;1.67;;;;;;;0.63;68.13;94225.34;2045201;70;20246;-72
2022/02/08 07:27:18;;;;;;;2.15;1.45;;;;;;;0.68;68.86;94226.59;2048614;70;20142;-75
2022/02/08 07:29:51;;;;;;;1.65;1.35;;;;;;;0.73;68.65;94229.38;2048523;70;20151;-73
2022/02/08 07:32:16;;;;;;;2.38;1.60;;;;;;;0.57;70.30;94234.97;2048556;70;20547;-72
2022/02/08 07:34:47;;;;;;;3.47;1.52;;;;;;;0.74;69.95;94235.66;2048478;70;20137;-74
2022/02/08 07:37:33;;;;;;;2.78;1.60;;;;;;;0.88;70.02;94242.91;2048481;70;20234;-76
2022/02/08 07:40:04;;;;;;;5.05;3.17;;;;;;;0.93;68.80;94233.06;2048495;70;20583;-74
2022/02/08 07:42:30;;;;;;;5.63;2.88;;;;;;;0.84;69.02;94228.56;2045136;70;20202;-71
2022/02/08 07:45:00;;;;;;;5.47;2.72;;;;;;;0.98;69.35;94223.97;2050608;70;20522;-73
2022/02/08 07:47:26;;;;;;;4.97;2.80;;;;;;;1.12;68.91;94230.47;2045062;70;20147;-71
2022/02/08 07:49:51;;;;;;;3.45;1.50;;;;;;;1.18;70.08;94242.28;2048453;70;20166;-73
2022/02/08 07:52:17;;;;;;;3.40;2.00;;;;;;;1.16;68.17;94237.25;2050503;70;20498;-72
2022/02/08 07:54:43;;;;;;;5.38;1.90;;;;;;;1.19;67.81;94244.56;2045142;70;20155;-73
2022/02/08 07:57:09;;;;;;;3.00;1.60;;;;;;;1.35;67.72;94256.81;2048386;70;20149;-72
2022/02/08 07:59:34;;;;;;;2.78;1.70;;;;;;;1.26;69.17;94249.53;2048312;70;20163;-73
2022/02/08 08:02:00;;;;;;;3.63;1.80;;;;;;;1.40;68.78;94258.06;2048210;70;20137;-72
2022/02/08 08:04:27;;;;;;;2.88;1.80;;;;;;;1.31;68.92;94252.81;2045099;70;20139;-73
2022/02/08 08:06:53;;;;;;;3.20;1.73;;;;;;;1.45;69.83;94254.47;2048396;70;20143;-71
2022/02/08 08:09:19;;;;;;;3.75;2.10;;;;;;;1.26;67.40;94246.00;2048370;70;20339;-73
2022/02/08 08:11:47;;;;;;;3.25;2.25;;;;;;;1.34;66.02;94249.00;2050627;70;20675;-78
2022/02/08 08:14:15;;;;;;;6.03;3.30;;;;;;;1.12;66.56;94253.41;2048417;70;20150;-73
2022/02/08 08:16:48;;;;;;;4.68;2.53;;;;;;;1.54;68.10;94259.72;2048305;70;20166;-73
2022/02/08 08:21:40;;;;;;;3.45;1.88;;;;;;;1.79;68.76;94260.59;2048468;70;20181;-71
2022/02/08 08:24:08;;;;;;;2.80;1.35;;;;;;;1.77;69.26;94266.63;2048316;70;20151;-72
2022/02/08 08:26:34;;;;;;;4.15;1.17;;;;;;;1.95;67.79;94256.91;2048349;70;20150;-74
2022/02/08 08:29:00;;;;;;;1.85;1.38;;;;;;;1.82;67.72;94256.75;2048506;70;20158;-74
2022/02/08 08:31:26;;;;;;;7.43;3.85;;;;;;;1.31;65.90;94255.56;2044905;70;20135;-70
2022/02/08 08:33:51;;;;;;;6.07;3.17;;;;;;;1.63;65.84;94248.31;2048317;70;20275;-72
2022/02/08 08:36:19;;;;;;;5.32;2.97;;;;;;;1.80;65.61;94239.13;2048360;70;20181;-71
2022/02/08 08:38:50;;;;;;;5.25;3.25;;;;;;;1.83;64.93;94246.41;2048287;70;20143;-75
2022/02/08 08:41:35;;;;;;;5.15;2.15;;;;;;;2.14;65.61;94257.00;2048462;70;20294;-74
2022/02/08 08:49:47;;;;;;;3.28;2.40;;;;;;;2.27;65.01;94248.06;2048317;70;20185;-70
2022/02/08 08:52:12;;;;;;;6.45;2.17;;;;;;;2.26;65.37;94247.31;2048262;70;20514;-71
2022/02/08 08:54:38;;;;;;;5.53;2.92;;;;;;;2.07;63.86;94254.81;2048287;70;20165;-70
2022/02/08 08:57:04;;;;;;;3.88;2.42;;;;;;;2.07;65.50;94252.03;2048273;70;20600;-76
2022/02/08 08:59:29;;;;;;;5.38;2.50;;;;;;;2.46;65.87;94248.13;2048297;70;20634;-70
2022/02/08 09:01:55;;;;;;;6.25;2.55;;;;;;;2.53;64.99;94231.63;2050292;70;20158;-75
2022/02/08 09:04:33;;;;;;;12.18;2.63;;;;;;;2.47;64.35;94230.91;2048439;70;20146;-70
2022/02/08 09:06:59;;;;;;;4.25;2.13;;;;;;;2.62;63.74;94236.09;2045657;70;20154;-71
2022/02/08 09:09:26;;;;;;;4.50;2.33;;;;;;;2.72;63.60;94239.28;2048880;70;20307;-71
2022/02/08 09:12:07;;;;;;;5.43;2.30;;;;;;;2.83;64.65;94244.69;2048747;70;20174;-76
2022/02/08 09:23:18;;;;;;;8.70;3.70;;;;;;;3.04;61.57;94225.50;2048686;70;20131;-71
2022/02/08 09:28:02;;;;;;;4.80;2.30;;;;;;;3.38;63.16;94213.91;2048715;70;20134;-73
2022/02/08 09:30:37;;;;;;;3.58;2.20;;;;;;;3.53;64.88;94217.75;2045475;70;20242;-72
2022/02/08 09:33:03;;;;;;;5.07;2.20;;;;;;;3.77;63.54;94218.91;2048651;70;20613;-72
2022/02/08 09:35:28;;;;;;;6.68;3.13;;;;;;;3.77;59.62;94224.47;2048643;70;20147;-74
2022/02/08 09:37:54;;;;;;;6.47;3.65;;;;;;;4.03;58.14;94224.59;2048718;70;20269;-72
2022/02/08 09:40:21;;;;;;;7.80;3.20;;;;;;;3.93;56.10;94225.50;2048794;70;20189;-72
2022/02/08 09:42:48;;;;;;;11.57;4.28;;;;;;;3.59;55.98;94225.25;2048679;70;20200;-73
2022/02/08 09:45:19;;;;;;;6.45;3.50;;;;;;;4.02;57.17;94220.28;2048638;70;20157;-73
2022/02/08 09:47:53;;;;;;;5.53;2.95;;;;;;;4.40;62.89;94222.94;2048542;70;20154;-72
2022/02/08 09:50:22;;;;;;;4.07;2.35;;;;;;;4.56;61.67;94209.97;2045467;70;20267;-73
2022/02/08 09:52:54;;;;;;;6.07;2.92;;;;;;;4.38;59.86;94208.78;2048670;70;20541;-70
2022/02/08 09:55:21;;;;;;;6.03;2.88;;;;;;;4.85;57.68;94205.34;2048720;70;20232;-71
2022/02/08 09:57:48;;;;;;;4.55;2.75;;;;;;;5.16;56.86;94200.94;2048614;70;20178;-71
2022/02/08 10:00:16;;;;;;;5.45;2.70;;;;;;;5.55;58.42;94204.94;2048729;70;20154;-76
2022/02/08 10:02:42;;;;;;;7.53;3.42;;;;;;;5.55;54.86;94194.50;2050666;70;20143;-71
2022/02/08 10:05:08;;;;;;;4.80;2.95;;;;;;;5.67;56.19;94199.81;2048664;70;20528;-72
2022/02/08 10:07:35;;;;;;;6.63;2.53;;;;;;;5.63;54.79;94207.78;2048667;70;20534;-76
2022/02/08 10:10:24;;;;;;;6.82;2.75;;;;;;;6.07;55.16;94212.38;2048592;70;20158;-71
2022/02/08 10:23:28;;;;;;;4.13;2.10;;;;;;;6.79;59.67;94213.88;2048635;70;20192;-71
2022/02/08 10:26:05;;;;;;;3.45;2.10;;;;;;;6.87;59.58;94209.06;2048674;70;20517;-73
2022/02/08 10:29:06;;;;;;;6.22;2.88;;;;;;;6.71;56.34;94213.06;2050719;70;20534;-74
2022/02/08 10:39:26;;;;;;;7.30;3.40;;;;;;;6.99;53.71;94199.06;2050532;70;20498;-74
2022/02/08 10:41:53;;;;;;;5.53;3.60;;;;;;;6.85;52.80;94198.41;2048742;70;20608;-74
2022/02/08 10:44:19;;;;;;;6.45;2.90;;;;;;;7.14;52.21;94187.94;2048618;70;20217;-74
2022/02/08 10:46:45;;;;;;;5.82;3.25;;;;;;;7.36;52.98;94180.94;2048521;70;20170;-72
2022/02/08 10:49:13;;;;;;;7.38;3.25;;;;;;;7.77;54.44;94187.59;2048810;70;20241;-75
2022/02/08 10:54:21;;;;;;;5.72;3.20;;;;;;;7.40;51.35;94174.97;2048671;70;20151;-72
2022/02/08 10:56:52;;;;;;;8.20;2.95;;;;;;;7.46;53.30;94163.59;2048578;70;20570;-72
2022/02/08 10:59:33;;;;;;;4.97;2.67;;;;;;;7.61;56.10;94158.78;2048511;70;20175;-72
2022/02/08 11:02:05;;;;;;;4.63;3.05;;;;;;;7.80;55.83;94149.31;2047975;70;20147;-76
2022/02/08 11:05:25;;;;;;;10.82;3.60;;;;;;;7.71;54.40;94147.03;2048568;70;20233;-75
2022/02/08 11:15:25;;;;;;;8.10;3.30;;;;;;;8.88;54.30;94140.28;2048504;70;20159;-76
2022/02/08 11:18:14;;;;;;;7.32;3.10;;;;;;;9.74;52.57;94144.25;2048442;70;20530;-73
2022/02/08 11:20:41;;;;;;;10.95;4.03;;;;;;;9.93;47.25;94134.00;2048399;70;20309;-72
2022/02/08 11:23:21;;;;;;;10.23;4.90;;;;;;;10.76;51.08;94142.38;2048525;70;20279;-73
2022/02/08 11:25:50;;;;;;;9.20;4.40;;;;;;;12.38;45.42;94136.97;2048480;70;20195;-72
2022/02/08 11:53:18;;;;;;;5.43;3.33;;;;;;;16.13;39.28;94100.03;2044014;70;20184;-72
2022/02/08 12:01:21;;;;;;;7.50;3.85;;;;;;;17.80;36.62;94088.53;2044195;70;20162;-73
2022/02/08 12:04:14;;;;;;;7.18;4.13;;;;;;;16.03;34.55;94090.84;2043985;70;20153;-75
2022/02/08 12:09:31;;;;;;;4.10;3.05;;;;;;;19.74;33.24;94096.56;2044175;70;20651;-76
2022/02/08 12:29:29;;;;;;;3.45;2.40;;;;;;;21.60;30.27;94068.50;2051557;70;20211;-75
2022/02/08 12:50:47;;;;;;;6.15;3.40;;;;;;;15.44;34.35;94055.84;2051908;70;20174;-72
2022/02/08 12:55:51;;;;;;;13.57;6.82;;;;;;;12.77;39.59;94043.81;2051963;70;20146;-71
2022/02/08 12:58:32;;;;;;;4.38;3.25;;;;;;;13.06;40.09;94048.75;2051827;70;20172;-74
2022/02/08 13:04:05;;;;;;;4.47;2.35;;;;;;;11.16;42.72;94046.31;2051831;70;20153;-74
2022/02/08 14:02:02;;;;;;;10.10;5.20;;;;;;;6.15;56.46;94022.31;2049315;70;20142;-73
2022/02/08 14:07:11;;;;;;;7.88;5.60;;;;;;;6.18;56.21;94006.47;2051823;70;20130;-71
2022/02/08 14:09:52;;;;;;;15.07;7.97;;;;;;;5.78;57.31;94012.34;2051753;70;20145;-71
2022/02/08 14:18:07;;;;;;;22.83;15.48;;;;;;;5.65;58.86;94006.84;2051711;70;20153;-71
2022/02/08 14:20:57;;;;;;;21.05;13.23;;;;;;;5.55;59.56;94003.78;2051732;70;20142;-71
2022/02/08 15:09:24;;;;;;;33.15;19.80;;;;;;;4.42;62.35;93979.81;2051697;70;20131;-70
2022/02/08 15:14:27;;;;;;;36.10;20.92;;;;;;;4.45;61.58;93976.69;2051540;70;20146;-73
2022/02/08 15:16:53;;;;;;;32.53;17.92;;;;;;;4.29;62.39;93975.75;2051475;70;20142;-75
2022/02/08 15:19:19;;;;;;;27.42;16.58;;;;;;;4.29;62.78;93986.16;2051645;70;20173;-71
2022/02/08 15:21:45;;;;;;;30.00;15.63;;;;;;;4.27;62.35;93977.59;2051524;70;20143;-71
2022/02/08 15:24:13;;;;;;;20.33;12.07;;;;;;;4.21;63.58;93976.94;2050902;70;20185;-71
2022/02/08 15:26:45;;;;;;;26.23;16.00;;;;;;;4.20;63.24;93978.97;2051625;70;20148;-71
2022/02/08 15:29:11;;;;;;;37.33;21.88;;;;;;;4.16;64.43;93975.75;2051511;70;20255;-72
2022/02/08 15:31:37;;;;;;;42.53;23.35;;;;;;;4.19;63.92;93973.94;2051544;70;20172;-71
2022/02/08 15:34:02;;;;;;;40.40;23.15;;;;;;;4.40;63.62;93968.41;2051500;70;20138;-70
2022/02/08 15:36:30;;;;;;;46.50;22.85;;;;;;;4.02;63.64;93977.06;2051611;70;20143;-70
2022/02/08 15:39:01;;;;;;;34.65;17.85;;;;;;;3.82;65.35;93968.09;2051669;70;20153;-70
2022/02/08 15:41:27;;;;;;;45.13;21.70;;;;;;;3.61;65.66;93966.47;2051635;70;20525;-70
2022/02/08 15:43:53;;;;;;;42.08;23.92;;;;;;;3.82;64.71;93968.09;2053751;70;20149;-71
2022/02/08 15:46:23;;;;;;;50.72;26.23;;;;;;;3.88;63.75;93961.66;2051629;70;20150;-71
2022/02/08 15:48:50;;;;;;;52.38;27.38;;;;;;;3.56;65.38;93960.47;2051648;70;20601;-70
2022/02/08 15:53:58;;;;;;;52.25;24.80;;;;;;;3.66;64.64;93957.25;2051617;70;20164;-72
2022/02/08 16:07:32;;;;;;;39.80;20.60;;;;;;;3.44;65.07;93972.38;2051584;70;20134;-70
2022/02/08 16:09:58;;;;;;;41.92;21.20;;;;;;;3.43;64.99;93963.25;2051438;70;20186;-71
2022/02/08 16:15:27;;;;;;;37.33;20.92;;;;;;;3.42;66.35;93961.00;2051619;70;20142;-70
2022/02/08 16:18:04;;;;;;;42.90;24.35;;;;;;;3.38;65.10;93958.53;2051553;70;20205;-71
2022/02/08 16:28:42;;;;;;;37.55;22.13;;;;;;;2.89;67.42;93967.22;2051523;70;20138;-70
2022/02/08 16:53:08;;;;;;;75.15;36.45;;;;;;;2.72;67.03;93983.41;2051249;70;20265;-68
2022/02/08 16:56:02;;;;;;;51.17;27.85;;;;;;;1.95;70.88;93983.94;2051383;70;20562;-70
2022/02/08 17:01:07;;;;;;;49.53;27.43;;;;;;;2.49;67.96;93978.19;2051310;70;20288;-72
2022/02/08 17:03:33;;;;;;;55.95;27.50;;;;;;;2.39;67.27;93974.28;2051225;70;20346;-70
2022/02/08 17:05:59;;;;;;;57.35;26.83;;;;;;;2.46;67.82;93975.69;2051375;70;20148;-73
2022/02/08 17:08:26;;;;;;;62.13;31.48;;;;;;;2.44;67.55;93976.22;2051276;70;20178;-70
2022/02/08 17:10:56;;;;;;;61.15;31.95;;;;;;;2.38;67.48;93975.53;2051276;70;20170;-70
2022/02/08 17:18:51;;;;;;;65.93;32.00;;;;;;;2.32;68.92;93985.25;2051126;70;20142;-70
2022/02/08 17:48:13;;;;;;;12.30;6.78;;;;;;;2.38;71.05;94008.16;2051631;70;20182;-72
2022/02/08 17:50:38;;;;;;;5.18;2.50;;;;;;;2.71;68.90;94009.72;2048656;70;20135;-82
2022/02/08 17:53:04;;;;;;;2.65;1.70;;;;;;;2.58;69.10;94007.63;2051679;70;20201;-73
2022/02/08 17:55:31;;;;;;;8.90;5.15;;;;;;;2.78;68.16;94020.97;2051781;70;20149;-70
2022/02/08 17:57:57;;;;;;;9.27;4.72;;;;;;;2.91;68.72;94014.72;2051702;70;20338;-73
2022/02/08 18:00:23;;;;;;;8.45;4.55;;;;;;;2.86;69.72;94020.38;2049626;70;20162;-72
2022/02/08 18:02:48;;;;;;;7.85;4.35;;;;;;;2.86;70.19;94025.94;2051533;70;20149;-71
2022/02/08 18:05:16;;;;;;;8.95;4.72;;;;;;;3.03;68.90;94024.41;2051420;70;20157;-72
2022/02/08 18:07:42;;;;;;;10.07;5.68;;;;;;;3.01;68.32;94017.84;2051566;70;20463;-71
2022/02/08 18:10:10;;;;;;;15.00;7.65;;;;;;;2.80;68.84;94028.81;2051610;70;20181;-72
2022/02/08 18:12:37;;;;;;;22.75;9.70;;;;;;;2.71;69.29;94027.16;2051511;70;20138;-71
2022/02/08 18:15:09;;;;;;;11.43;6.43;;;;;;;2.72;69.68;94025.88;2051658;70;20653;-70
2022/02/08 18:17:40;;;;;;;25.25;10.50;;;;;;;2.74;69.24;94020.53;2048292;70;20245;-72
2022/02/08 18:20:23;;;;;;;16.02;8.60;;;;;;;2.46;70.67;94034.06;2051850;70;20147;-69
2022/02/08 19:03:18;;;;;;;6.88;4.13;;;;;;;3.19;66.95;94061.59;2051558;70;20190;-70
2022/02/08 19:03:49;;;;;;;29.15;10.65;;;;;;;3.02;67.95;94053.50;2051561;70;20142;-68
2022/02/08 19:21:45;;;;;;;11.18;6.00;;;;;;;2.59;68.81;94056.41;2051342;70;20267;-71
2022/02/08 19:24:19;;;;;;;9.57;5.30;;;;;;;2.61;68.66;94061.41;2051712;70;20613;-71
2022/02/08 19:26:50;;;;;;;7.90;4.60;;;;;;;2.52;69.75;94054.19;2051670;70;20154;-70
2022/02/08 19:29:17;;;;;;;136.40;53.25;;;;;;;2.37;69.58;94053.91;2051649;70;20158;-69
2022/02/08 19:31:44;;;;;;;24.10;10.23;;;;;;;2.12;70.21;94056.72;2051454;70;20601;-69
2022/02/08 19:34:10;;;;;;;17.30;8.00;;;;;;;2.11;70.94;94054.47;2051588;70;20144;-77
2022/02/08 19:36:36;;;;;;;11.75;6.57;;;;;;;2.25;69.75;94045.72;2051502;70;20154;-76
2022/02/08 19:39:04;;;;;;;15.20;6.00;;;;;;;2.32;70.27;94052.69;2051435;70;20506;-74
2022/02/08 19:41:30;;;;;;;22.08;9.95;;;;;;;2.34;69.87;94055.72;2051356;70;20142;-69